Time;durP1;ratioP1;P1;durP2;ratioP2;P2;SDS_P1;SDS_P2;PMS_P1;PMS_P2;Temp;Humidity;BMP_temperature;BMP_pressure;BME280_temperature;BME280_humidity;BME280_pressure;Samples;Min_cycle;Max_cycle;Signal;HPM_P1;HPM_P2
2021/08/13 00:02:03;;;;;;;10.37;8.73;;;18.60;99.90;;;;;;5013428;28;20180;-77
2021/08/13 00:04:28;;;;;;;10.80;9.00;;;18.60;99.90;;;;;;5030197;28;20172;-77
2021/08/13 00:06:54;;;;;;;11.33;8.80;;;18.50;99.90;;;;;;5013296;28;20172;-77
2021/08/13 00:09:22;;;;;;;10.60;9.47;;;18.50;99.90;;;;;;5029535;28;20282;-77
2021/08/13 00:11:47;;;;;;;12.23;10.00;;;18.50;99.90;;;;;;4996870;28;20199;-77
2021/08/13 00:14:13;;;;;;;12.20;10.23;;;18.50;99.90;;;;;;4996911;28;20195;-77
2021/08/13 00:16:38;;;;;;;13.47;10.57;;;18.50;99.90;;;;;;5014204;28;20651;-77
2021/08/13 00:19:04;;;;;;;13.90;10.63;;;18.40;99.90;;;;;;4996546;28;20651;-77
2021/08/13 00:21:30;;;;;;;12.97;10.90;;;18.40;99.90;;;;;;5013259;28;20199;-77
2021/08/13 00:23:56;;;;;;;15.93;11.40;;;18.40;99.90;;;;;;5012951;28;20693;-77
2021/08/13 00:26:21;;;;;;;10.70;9.60;;;18.30;99.90;;;;;;5013087;28;20262;-77
2021/08/13 00:28:47;;;;;;;13.53;10.00;;;18.30;99.90;;;;;;4996425;28;20294;-77
2021/08/13 00:31:13;;;;;;;15.63;10.27;;;18.20;99.90;;;;;;4996365;28;20184;-77
2021/08/13 00:33:38;;;;;;;14.23;10.57;;;18.20;99.90;;;;;;4996457;28;20196;-77
2021/08/13 00:36:04;;;;;;;14.33;10.70;;;18.20;99.90;;;;;;4996471;28;20180;-77
2021/08/13 00:38:29;;;;;;;15.67;11.60;;;18.10;99.90;;;;;;5012856;28;20257;-77
2021/08/13 00:40:55;;;;;;;13.10;10.67;;;18.10;99.90;;;;;;4995977;28;20326;-77
2021/08/13 00:43:21;;;;;;;14.83;11.73;;;18.20;99.90;;;;;;4996052;28;20207;-77
2021/08/13 00:45:46;;;;;;;14.60;11.40;;;18.00;99.90;;;;;;5012660;28;20662;-77
2021/08/13 00:48:12;;;;;;;13.97;11.57;;;18.00;99.90;;;;;;5012218;28;20670;-77
2021/08/13 00:50:37;;;;;;;15.23;11.53;;;18.00;99.90;;;;;;5012307;28;20182;-77
2021/08/13 00:53:03;;;;;;;15.93;11.83;;;18.00;99.90;;;;;;4995639;28;20219;-77
2021/08/13 00:55:29;;;;;;;18.47;11.80;;;18.00;99.90;;;;;;4996292;28;20667;-78
2021/08/13 00:57:55;;;;;;;14.07;12.07;;;17.90;99.90;;;;;;5012340;28;20210;-77
2021/08/13 01:00:20;;;;;;;13.67;11.37;;;17.90;99.90;;;;;;4995819;28;20183;-77
2021/08/13 01:02:46;;;;;;;16.93;12.90;;;17.90;99.90;;;;;;5011995;28;20204;-77
2021/08/13 01:05:11;;;;;;;18.50;12.93;;;17.80;99.90;;;;;;4995683;28;20187;-77
2021/08/13 01:07:37;;;;;;;16.73;12.13;;;17.90;99.90;;;;;;5012084;28;20290;-77
2021/08/13 01:10:04;;;;;;;17.77;12.17;;;17.80;99.90;;;;;;5012009;28;20190;-77
2021/08/13 01:12:35;;;;;;;16.53;12.87;;;17.70;99.90;;;;;;5012341;28;20247;-77
2021/08/13 01:15:15;;;;;;;19.30;12.13;;;17.70;99.90;;;;;;5012095;28;20184;-77
2021/08/13 01:17:51;;;;;;;17.13;12.30;;;17.70;99.90;;;;;;5012165;28;20176;-77
2021/08/13 01:20:36;;;;;;;19.73;12.53;;;17.60;99.90;;;;;;4995633;28;20704;-77
2021/08/13 01:23:14;;;;;;;16.63;11.83;;;17.60;99.90;;;;;;5013307;28;20225;-77
2021/08/13 01:25:42;;;;;;;14.93;12.17;;;17.60;99.90;;;;;;5012196;28;20183;-77
2021/08/13 01:28:32;;;;;;;17.80;12.77;;;17.60;99.90;;;;;;4995527;28;20683;-77
2021/08/13 01:30:59;;;;;;;20.53;13.07;;;17.60;99.90;;;;;;4990820;28;20199;-77
2021/08/13 01:33:24;;;;;;;13.43;11.87;;;17.60;99.90;;;;;;5011964;28;20250;-77
2021/08/13 01:35:50;;;;;;;18.10;12.23;;;17.50;99.90;;;;;;5012044;28;20175;-77
2021/08/13 01:38:21;;;;;;;14.87;11.80;;;17.50;99.90;;;;;;5013365;28;20179;-77
2021/08/13 01:40:47;;;;;;;15.57;12.07;;;17.50;99.90;;;;;;5015818;28;20183;-77
2021/08/13 01:43:19;;;;;;;14.60;11.93;;;17.50;99.90;;;;;;4999582;28;20294;-77
2021/08/13 01:45:44;;;;;;;13.87;11.73;;;17.50;99.90;;;;;;4999674;28;20183;-77
2021/08/13 01:48:10;;;;;;;15.80;11.90;;;17.50;99.90;;;;;;5016155;28;20215;-78
2021/08/13 01:50:36;;;;;;;16.73;12.43;;;17.50;99.90;;;;;;4999470;28;20247;-78
2021/08/13 01:53:02;;;;;;;16.90;12.53;;;17.40;99.90;;;;;;5015948;28;20281;-77
2021/08/13 01:55:27;;;;;;;17.43;12.73;;;17.40;99.90;;;;;;4999657;28;20219;-77
2021/08/13 01:57:53;;;;;;;18.13;11.97;;;17.50;99.90;;;;;;5016164;28;20182;-77
2021/08/13 02:00:19;;;;;;;16.33;11.90;;;17.50;99.90;;;;;;5015759;28;20198;-77
2021/08/13 02:02:45;;;;;;;15.97;12.30;;;17.50;99.90;;;;;;4999590;28;20279;-78
2021/08/13 02:05:11;;;;;;;16.87;12.57;;;17.40;99.90;;;;;;4999492;28;20184;-77
2021/08/13 02:07:39;;;;;;;15.13;12.13;;;17.40;99.90;;;;;;5015353;28;20203;-77
2021/08/13 02:10:05;;;;;;;16.80;11.73;;;17.40;99.90;;;;;;5015452;28;20187;-77
2021/08/13 02:12:30;;;;;;;16.53;12.10;;;17.40;99.90;;;;;;5015292;28;20234;-78
2021/08/13 02:14:56;;;;;;;13.47;11.57;;;17.30;99.90;;;;;;4999274;28;20594;-77
2021/08/13 02:17:22;;;;;;;13.53;11.80;;;17.30;99.90;;;;;;5016463;28;20183;-78
2021/08/13 02:19:53;;;;;;;13.93;11.33;;;17.30;99.90;;;;;;5000498;28;20187;-77
2021/08/13 02:22:19;;;;;;;12.93;11.33;;;17.20;99.90;;;;;;4999694;28;20563;-78
2021/08/13 02:24:44;;;;;;;13.43;11.23;;;17.20;99.90;;;;;;5016505;28;20190;-78
2021/08/13 02:27:10;;;;;;;14.70;11.23;;;17.20;99.90;;;;;;5015217;28;20179;-77
2021/08/13 02:29:35;;;;;;;13.60;10.93;;;17.20;99.90;;;;;;5015002;28;20174;-77
2021/08/13 02:32:01;;;;;;;14.47;11.23;;;17.20;99.90;;;;;;4998672;28;20180;-78
2021/08/13 02:34:27;;;;;;;16.43;11.20;;;17.20;99.90;;;;;;5015025;28;20179;-78
2021/08/13 02:37:07;;;;;;;13.60;11.90;;;17.20;99.90;;;;;;4998624;28;20180;-77
2021/08/13 02:39:44;;;;;;;12.33;10.83;;;17.20;99.90;;;;;;5016485;28;20183;-77
2021/08/13 02:42:11;;;;;;;14.10;10.80;;;17.20;99.90;;;;;;5014925;28;20623;-77
2021/08/13 02:44:36;;;;;;;13.63;10.53;;;17.10;99.90;;;;;;5014839;28;20176;-77
2021/08/13 02:47:05;;;;;;;14.93;10.67;;;17.10;99.90;;;;;;4998301;28;20183;-77
2021/08/13 02:49:30;;;;;;;15.00;10.73;;;17.10;99.90;;;;;;5013070;28;20210;-77
2021/08/13 02:52:05;;;;;;;15.17;11.17;;;17.10;99.90;;;;;;4994559;28;20181;-77
2021/08/13 02:54:30;;;;;;;12.67;11.33;;;17.20;99.90;;;;;;4978661;28;20175;-77
2021/08/13 02:56:56;;;;;;;17.07;12.30;;;17.20;99.90;;;;;;4978918;28;20180;-77
2021/08/13 02:59:24;;;;;;;15.40;11.77;;;17.20;99.90;;;;;;4994922;28;20180;-77
2021/08/13 03:01:51;;;;;;;16.00;12.27;;;17.20;99.90;;;;;;4995287;28;20263;-77
2021/08/13 03:04:17;;;;;;;16.10;11.77;;;17.20;99.90;;;;;;4978667;28;20203;-77
2021/08/13 03:06:42;;;;;;;15.10;12.13;;;17.20;99.90;;;;;;4978876;28;20213;-77
2021/08/13 03:09:08;;;;;;;12.73;11.40;;;17.20;99.90;;;;;;4995312;28;20231;-77
2021/08/13 03:11:34;;;;;;;18.13;11.70;;;17.20;99.90;;;;;;4994656;28;20285;-77
2021/08/13 03:13:59;;;;;;;16.40;12.00;;;17.20;99.90;;;;;;4979118;28;20260;-78
2021/08/13 03:16:25;;;;;;;14.63;11.47;;;17.20;99.90;;;;;;4995845;28;20180;-78
2021/08/13 03:18:51;;;;;;;14.93;11.17;;;17.20;99.90;;;;;;4994752;28;20180;-77
2021/08/13 03:21:16;;;;;;;15.80;11.97;;;17.10;99.90;;;;;;4978401;28;20242;-77
2021/08/13 03:23:42;;;;;;;15.43;11.63;;;17.20;99.90;;;;;;4995119;28;20279;-77
2021/08/13 03:26:08;;;;;;;14.33;11.80;;;17.10;99.90;;;;;;4978461;28;20565;-78
2021/08/13 03:28:34;;;;;;;17.70;11.63;;;17.10;99.90;;;;;;4978596;28;20686;-77
2021/08/13 03:30:59;;;;;;;14.17;11.33;;;17.00;99.90;;;;;;4994953;28;20161;-78
2021/08/13 03:33:25;;;;;;;14.63;11.40;;;17.00;99.90;;;;;;4994632;28;20234;-77
2021/08/13 03:35:50;;;;;;;14.77;11.90;;;17.00;99.90;;;;;;4978305;28;20179;-77
2021/08/13 03:38:16;;;;;;;14.07;11.23;;;17.00;99.90;;;;;;4994554;28;20176;-77
2021/08/13 03:40:41;;;;;;;14.17;11.13;;;17.00;99.90;;;;;;4994560;28;20176;-77
2021/08/13 03:43:07;;;;;;;16.03;11.77;;;16.90;99.90;;;;;;4994805;28;20705;-78
2021/08/13 03:45:33;;;;;;;14.70;11.20;;;17.00;99.90;;;;;;4994216;28;20184;-77
2021/08/13 03:47:58;;;;;;;16.03;11.70;;;16.90;99.90;;;;;;4977808;28;20204;-77
2021/08/13 03:50:24;;;;;;;13.50;11.00;;;16.90;99.90;;;;;;4977551;28;20176;-77
2021/08/13 03:52:49;;;;;;;15.67;11.47;;;16.90;99.90;;;;;;4994179;28;20215;-78
2021/08/13 03:55:15;;;;;;;13.83;10.90;;;16.90;99.90;;;;;;4994077;28;20184;-77
2021/08/13 03:57:41;;;;;;;17.27;11.17;;;16.80;99.90;;;;;;4993978;28;20177;-77
2021/08/13 04:00:08;;;;;;;14.47;10.90;;;16.80;99.90;;;;;;4977558;28;20192;-77
2021/08/13 04:02:33;;;;;;;14.73;11.30;;;16.80;99.90;;;;;;4993913;28;20204;-77
2021/08/13 04:04:59;;;;;;;15.67;10.87;;;16.80;99.90;;;;;;4977568;28;20726;-77
2021/08/13 04:07:24;;;;;;;14.27;11.37;;;16.80;99.90;;;;;;4994781;28;20188;-77
2021/08/13 04:09:50;;;;;;;14.90;11.87;;;16.80;99.90;;;;;;4993463;28;20226;-77
2021/08/13 04:12:15;;;;;;;14.67;11.50;;;16.80;99.90;;;;;;4977808;28;20275;-77
2021/08/13 04:14:41;;;;;;;14.27;11.27;;;16.70;99.90;;;;;;4993651;28;20310;-78
2021/08/13 04:17:07;;;;;;;16.80;11.73;;;16.80;99.90;;;;;;4977359;28;20184;-78
2021/08/13 04:19:32;;;;;;;16.03;10.87;;;16.80;99.90;;;;;;4993220;28;20180;-77
2021/08/13 04:21:58;;;;;;;13.60;11.40;;;16.80;99.90;;;;;;4977145;28;20187;-77
2021/08/13 04:24:23;;;;;;;14.83;10.83;;;16.80;99.90;;;;;;4977063;28;20211;-77
2021/08/13 04:26:49;;;;;;;16.23;11.60;;;16.80;99.90;;;;;;4993293;28;20524;-77
2021/08/13 04:29:15;;;;;;;14.57;11.60;;;16.80;99.90;;;;;;4993098;28;20262;-77
2021/08/13 04:31:40;;;;;;;14.30;11.83;;;16.90;99.90;;;;;;4977166;28;20667;-77
2021/08/13 04:34:06;;;;;;;16.17;11.70;;;16.80;99.90;;;;;;4993226;28;20203;-77
2021/08/13 04:36:32;;;;;;;16.30;11.47;;;16.80;99.90;;;;;;4976953;28;20184;-77
2021/08/13 04:38:57;;;;;;;16.27;11.60;;;16.70;99.90;;;;;;4993133;28;20181;-77
2021/08/13 04:41:23;;;;;;;15.13;11.90;;;16.70;99.90;;;;;;4977099;28;20272;-77
2021/08/13 04:43:48;;;;;;;14.97;11.63;;;16.70;99.90;;;;;;4993039;28;20204;-77
2021/08/13 04:46:14;;;;;;;15.60;11.27;;;16.70;99.90;;;;;;4977494;28;20180;-77
2021/08/13 04:48:39;;;;;;;16.00;11.97;;;16.70;99.90;;;;;;4977974;28;20232;-78
2021/08/13 04:51:05;;;;;;;16.07;11.97;;;16.70;99.90;;;;;;4978132;28;20223;-78
2021/08/13 04:53:30;;;;;;;15.27;11.83;;;16.80;99.90;;;;;;4993059;28;20211;-77
2021/08/13 04:55:56;;;;;;;14.60;12.10;;;16.80;99.90;;;;;;4976953;28;20177;-78
2021/08/13 04:58:22;;;;;;;18.50;11.80;;;16.80;99.90;;;;;;4992868;28;20190;-77
2021/08/13 05:00:48;;;;;;;17.33;12.60;;;16.90;99.90;;;;;;4993156;28;20687;-78
2021/08/13 05:03:13;;;;;;;14.73;12.00;;;16.90;99.90;;;;;;4964121;28;20683;-77
2021/08/13 05:05:39;;;;;;;17.63;12.83;;;16.90;99.90;;;;;;4981892;28;20191;-79
2021/08/13 05:08:05;;;;;;;18.23;13.00;;;17.00;99.90;;;;;;4985849;28;20222;-78
2021/08/13 05:10:31;;;;;;;16.43;12.80;;;17.00;99.90;;;;;;4957624;28;20663;-77
2021/08/13 05:12:57;;;;;;;16.67;12.70;;;17.00;99.90;;;;;;4972980;28;20243;-77
2021/08/13 05:15:22;;;;;;;17.30;12.10;;;17.10;99.90;;;;;;4973117;28;20234;-77
2021/08/13 05:17:48;;;;;;;18.60;13.13;;;17.10;99.90;;;;;;4973482;28;20173;-78
2021/08/13 05:20:13;;;;;;;18.87;13.27;;;17.10;99.90;;;;;;4973672;28;20177;-77
2021/08/13 05:22:39;;;;;;;16.60;13.50;;;17.20;99.90;;;;;;4957445;28;20201;-77
2021/08/13 05:25:09;;;;;;;15.37;12.90;;;17.20;99.90;;;;;;4973196;28;20196;-77
2021/08/13 05:27:35;;;;;;;18.10;13.03;;;17.30;99.90;;;;;;4973189;28;20169;-78
2021/08/13 05:30:02;;;;;;;19.33;12.70;;;17.30;99.90;;;;;;4972978;28;20169;-77
2021/08/13 05:32:29;;;;;;;20.57;13.43;;;17.40;99.90;;;;;;4957245;28;20209;-77
2021/08/13 05:34:54;;;;;;;18.03;13.47;;;17.40;99.90;;;;;;4973503;28;20216;-77
2021/08/13 05:37:20;;;;;;;18.20;13.13;;;17.50;99.90;;;;;;4973238;28;20180;-78
2021/08/13 05:39:46;;;;;;;19.03;12.87;;;17.60;99.90;;;;;;4972948;28;20180;-78
2021/08/13 05:42:11;;;;;;;15.43;12.97;;;17.70;99.90;;;;;;4973278;28;20256;-77
2021/08/13 05:44:38;;;;;;;16.37;12.53;;;17.80;99.90;;;;;;4998412;28;20176;-81
2021/08/13 05:47:04;;;;;;;15.63;11.77;;;17.90;99.90;;;;;;4992730;28;20255;-79
2021/08/13 05:49:30;;;;;;;18.40;12.10;;;18.10;99.90;;;;;;4992714;28;20645;-80
2021/08/13 05:51:55;;;;;;;17.47;12.40;;;18.30;99.90;;;;;;4977386;28;20256;-80
2021/08/13 05:54:21;;;;;;;16.87;12.43;;;18.40;99.90;;;;;;4982140;28;20263;-80
2021/08/13 05:56:46;;;;;;;17.30;12.57;;;18.60;99.90;;;;;;4972979;28;20213;-81
2021/08/13 05:59:12;;;;;;;15.57;11.93;;;19.10;99.90;;;;;;4974173;28;20181;-80
2021/08/13 06:01:37;;;;;;;14.93;11.97;;;19.70;99.90;;;;;;4960528;28;20185;-81
2021/08/13 06:04:03;;;;;;;15.90;11.93;;;20.20;99.90;;;;;;4959229;28;20201;-82
2021/08/13 06:06:29;;;;;;;12.50;10.60;;;20.50;99.90;;;;;;4974496;28;20181;-80
2021/08/13 06:08:54;;;;;;;13.43;11.27;;;20.60;99.90;;;;;;4957730;28;20219;-79
2021/08/13 06:11:20;;;;;;;17.13;11.53;;;20.80;99.90;;;;;;4959335;28;20181;-78
2021/08/13 06:13:45;;;;;;;14.00;10.83;;;20.80;99.90;;;;;;4974633;28;20188;-79
2021/08/13 06:16:11;;;;;;;16.37;11.13;;;20.80;99.90;;;;;;4958898;28;20208;-80
2021/08/13 06:18:37;;;;;;;13.70;11.53;;;20.70;99.90;;;;;;4984359;28;20181;-81
2021/08/13 06:21:03;;;;;;;15.00;11.70;;;20.80;99.90;;;;;;4970419;28;20208;-80
2021/08/13 06:23:28;;;;;;;15.07;11.07;;;20.80;99.90;;;;;;4990393;28;20192;-80
2021/08/13 06:25:54;;;;;;;14.30;10.33;;;20.90;99.90;;;;;;4997425;28;20191;-80
2021/08/13 06:28:19;;;;;;;15.60;11.03;;;21.20;99.90;;;;;;4980088;28;20200;-80
2021/08/13 06:30:45;;;;;;;14.77;10.90;;;21.40;99.90;;;;;;4980982;28;20180;-80
2021/08/13 06:33:10;;;;;;;18.33;11.03;;;21.70;99.90;;;;;;4981463;28;20192;-80
2021/08/13 06:35:36;;;;;;;14.17;11.37;;;21.80;99.90;;;;;;4995985;28;20212;-79
2021/08/13 06:38:02;;;;;;;16.73;10.97;;;21.80;99.90;;;;;;4979723;28;20180;-80
2021/08/13 06:40:29;;;;;;;16.70;11.00;;;21.90;99.90;;;;;;4995471;28;20342;-81
2021/08/13 06:42:55;;;;;;;14.93;11.03;;;22.00;99.90;;;;;;4966020;28;20910;-81
2021/08/13 06:45:22;;;;;;;14.07;10.60;;;22.30;99.90;;;;;;4986737;28;20228;-80
2021/08/13 06:47:47;;;;;;;13.83;10.87;;;22.70;99.90;;;;;;4987267;28;20200;-81
2021/08/13 06:50:13;;;;;;;16.57;10.60;;;22.80;99.90;;;;;;4971783;28;20169;-80
2021/08/13 06:52:39;;;;;;;16.27;10.57;;;23.00;99.90;;;;;;4970240;28;20218;-80
2021/08/13 06:55:05;;;;;;;18.30;10.67;;;23.10;99.90;;;;;;4971230;28;20200;-80
2021/08/13 06:57:31;;;;;;;16.33;10.73;;;23.10;99.90;;;;;;4989127;28;20173;-80
2021/08/13 06:59:56;;;;;;;14.37;11.20;;;23.20;99.90;;;;;;4971199;28;20173;-80
2021/08/13 07:02:23;;;;;;;19.30;11.13;;;23.40;99.90;;;;;;4968393;28;20196;-79
2021/08/13 07:04:49;;;;;;;14.55;10.43;;;23.60;99.90;;;;;;4962460;28;20177;-79
2021/08/13 07:07:14;;;;;;;14.57;10.80;;;23.60;99.90;;;;;;4979801;28;20671;-79
2021/08/13 07:09:45;;;;;;;17.53;10.97;;;23.60;99.90;;;;;;4979733;28;20236;-80
2021/08/13 07:12:11;;;;;;;16.08;10.45;;;23.70;99.90;;;;;;4982079;28;20219;-80
2021/08/13 07:14:37;;;;;;;16.83;9.73;;;23.80;99.90;;;;;;4965738;28;20551;-80
2021/08/13 07:17:02;;;;;;;13.87;10.73;;;23.80;99.90;;;;;;4970745;28;20183;-80
2021/08/13 07:19:28;;;;;;;13.82;10.80;;;23.70;99.90;;;;;;4966866;28;20187;-80
2021/08/13 07:21:53;;;;;;;14.23;10.27;;;23.60;99.90;;;;;;4966186;28;20557;-80
2021/08/13 07:24:21;;;;;;;17.25;10.88;;;23.80;99.90;;;;;;4965092;28;20799;-80
2021/08/13 07:26:47;;;;;;;14.18;10.68;;;24.10;99.90;;;;;;4980898;28;20177;-80
2021/08/13 07:29:13;;;;;;;12.65;10.32;;;24.10;99.90;;;;;;4981608;28;20207;-81
2021/08/13 07:31:38;;;;;;;15.68;10.68;;;24.10;99.90;;;;;;4970557;28;20231;-81
2021/08/13 07:34:04;;;;;;;13.13;10.70;;;24.00;99.90;;;;;;4983742;28;20200;-80
2021/08/13 07:36:29;;;;;;;13.82;10.82;;;23.90;99.90;;;;;;5000687;28;20235;-80
2021/08/13 07:38:55;;;;;;;16.52;10.95;;;23.80;99.90;;;;;;4984322;28;20278;-80
2021/08/13 07:41:20;;;;;;;12.25;10.40;;;23.80;99.90;;;;;;4985036;28;20191;-80
2021/08/13 07:43:46;;;;;;;16.85;10.80;;;23.70;99.90;;;;;;4983631;28;20660;-80
2021/08/13 07:46:12;;;;;;;14.07;10.65;;;23.70;99.90;;;;;;5000385;28;20263;-80
2021/08/13 07:48:37;;;;;;;15.80;10.20;;;23.80;99.90;;;;;;4983676;28;20227;-80
2021/08/13 07:51:03;;;;;;;13.13;9.77;;;24.00;99.90;;;;;;4998940;28;20181;-78
2021/08/13 07:53:28;;;;;;;13.02;9.63;;;24.10;99.90;;;;;;4980745;28;20216;-80
2021/08/13 07:55:54;;;;;;;14.10;9.50;;;24.30;99.90;;;;;;4977400;28;20177;-81
2021/08/13 07:58:19;;;;;;;11.95;9.60;;;24.50;99.90;;;;;;4978852;28;20649;-80
2021/08/13 08:00:45;;;;;;;13.38;9.23;;;24.60;99.90;;;;;;4964107;28;20565;-80
2021/08/13 08:03:12;;;;;;;10.23;8.90;;;24.80;99.90;;;;;;4964260;28;20280;-80
2021/08/13 08:05:38;;;;;;;13.23;10.23;;;24.90;99.90;;;;;;4979864;28;20587;-80
2021/08/13 08:08:04;;;;;;;12.35;9.98;;;24.90;99.90;;;;;;4962990;28;20208;-80
2021/08/13 08:10:30;;;;;;;12.25;10.50;;;25.00;99.90;;;;;;4963203;28;20177;-80
2021/08/13 08:12:55;;;;;;;14.43;10.27;;;25.00;99.90;;;;;;4962691;28;20568;-80
2021/08/13 08:15:21;;;;;;;12.68;9.50;;;25.00;99.90;;;;;;4979174;28;20174;-80
2021/08/13 08:17:46;;;;;;;12.25;9.55;;;25.00;99.90;;;;;;4979082;28;20272;-80
2021/08/13 08:20:12;;;;;;;16.88;13.48;;;24.90;99.90;;;;;;4962535;28;20177;-80
2021/08/13 08:22:37;;;;;;;16.45;13.18;;;25.00;99.90;;;;;;4963002;28;20200;-79
2021/08/13 08:25:03;;;;;;;15.80;13.98;;;25.10;99.90;;;;;;4979324;28;20184;-80
2021/08/13 08:27:29;;;;;;;20.17;15.25;;;25.00;99.90;;;;;;4997027;28;20271;-81
2021/08/13 08:29:55;;;;;;;20.98;14.77;;;25.10;99.90;;;;;;4980240;28;20207;-81
2021/08/13 08:32:20;;;;;;;17.27;14.02;;;25.10;99.90;;;;;;4997474;28;20192;-81
2021/08/13 08:34:46;;;;;;;17.33;14.30;;;25.10;99.90;;;;;;4997791;28;20204;-81
2021/08/13 08:37:12;;;;;;;20.45;14.35;;;25.20;99.90;;;;;;4987387;28;20242;-81
2021/08/13 08:39:38;;;;;;;17.75;13.25;;;25.40;99.90;;;;;;4984030;28;20177;-81
2021/08/13 08:42:18;;;;;;;20.42;13.73;;;25.50;99.90;;;;;;4983166;28;20226;-80
2021/08/13 08:44:43;;;;;;;19.00;13.43;;;25.60;99.90;;;;;;4966384;28;20207;-80
2021/08/13 08:47:09;;;;;;;17.50;13.05;;;25.70;99.90;;;;;;4983660;28;20180;-81
2021/08/13 08:49:38;;;;;;;18.13;14.30;;;25.80;99.90;;;;;;5007307;28;20234;-81
2021/08/13 08:52:04;;;;;;;21.83;15.02;;;25.90;99.90;;;;;;5017303;28;20168;-80
2021/08/13 08:54:30;;;;;;;21.20;14.38;;;25.90;99.90;;;;;;5001584;28;20176;-80
2021/08/13 08:56:55;;;;;;;20.45;15.70;;;26.00;99.90;;;;;;4997593;28;20211;-80
2021/08/13 08:59:21;;;;;;;19.83;16.05;;;26.10;99.90;;;;;;4982314;28;20187;-79
2021/08/13 09:01:46;;;;;;;20.98;16.05;;;26.20;99.90;;;;;;4980685;28;20187;-81
2021/08/13 09:04:12;;;;;;;20.27;16.08;;;26.20;99.90;;;;;;4979898;28;20757;-79
2021/08/13 09:06:41;;;;;;;23.52;17.05;;;26.20;99.90;;;;;;4980445;28;20562;-80
2021/08/13 09:09:07;;;;;;;21.25;15.93;;;26.20;99.90;;;;;;4984066;28;20613;-79
2021/08/13 09:11:37;;;;;;;21.88;16.67;;;26.20;99.90;;;;;;4979986;28;20227;-83
2021/08/13 09:14:08;;;;;;;22.27;15.77;;;26.20;99.90;;;;;;4996264;28;20200;-83
2021/08/13 09:16:33;;;;;;;19.23;14.75;;;26.20;99.90;;;;;;4978671;28;20169;-82
2021/08/13 09:19:04;;;;;;;22.52;16.17;;;26.30;99.90;;;;;;4997063;28;20644;-81
2021/08/13 09:21:31;;;;;;;21.90;15.55;;;26.40;99.90;;;;;;4974744;28;20260;-83
2021/08/13 09:24:00;;;;;;;20.67;15.00;;;26.40;99.90;;;;;;4965507;28;20634;-82
2021/08/13 09:26:26;;;;;;;22.25;15.95;;;26.40;99.90;;;;;;4998310;28;20251;-82
2021/08/13 09:28:59;;;;;;;20.73;14.75;;;26.50;99.90;;;;;;4973029;28;20299;-83
2021/08/13 09:31:33;;;;;;;24.23;16.55;;;26.30;99.90;;;;;;4984522;28;20181;-82
2021/08/13 09:34:13;;;;;;;22.60;15.70;;;26.30;99.90;;;;;;5004582;28;20192;-81
2021/08/13 09:36:48;;;;;;;23.05;16.17;;;26.30;99.90;;;;;;4991285;28;20191;-82
2021/08/13 09:39:14;;;;;;;19.70;14.77;;;26.30;99.90;;;;;;4992697;28;20179;-83
2021/08/13 09:41:44;;;;;;;19.95;14.48;;;26.30;99.90;;;;;;4974111;28;20176;-83
2021/08/13 09:44:10;;;;;;;20.30;14.80;;;26.30;99.90;;;;;;4971761;28;20200;-81
2021/08/13 09:46:35;;;;;;;19.33;14.07;;;26.20;99.90;;;;;;4988803;28;20213;-82
2021/08/13 09:49:14;;;;;;;18.83;13.35;;;26.10;99.90;;;;;;4991251;28;20216;-81
2021/08/13 09:51:40;;;;;;;20.20;13.63;;;25.80;99.90;;;;;;4998275;28;20192;-81
2021/08/13 09:54:06;;;;;;;18.33;12.82;;;25.90;99.90;;;;;;4967772;28;20661;-81
2021/08/13 09:56:33;;;;;;;18.67;13.77;;;26.20;99.90;;;;;;4976198;28;20211;-83
2021/08/13 09:59:17;;;;;;;17.88;13.32;;;26.30;99.90;;;;;;4982610;28;20560;-84
2021/08/13 10:01:50;;;;;;;20.85;14.88;;;26.40;99.90;;;;;;5012200;28;20200;-84
2021/08/13 10:04:31;;;;;;;16.60;14.00;;;26.50;99.90;;;;;;4999080;28;20579;-82
2021/08/13 10:06:56;;;;;;;17.27;13.73;;;26.50;99.90;;;;;;5003672;28;20172;-84
2021/08/13 10:09:23;;;;;;;17.88;13.32;;;26.40;99.90;;;;;;4985598;28;20242;-84
2021/08/13 10:11:59;;;;;;;19.00;15.85;;;26.40;99.90;;;;;;4986068;28;20181;-84
2021/08/13 10:14:31;;;;;;;19.58;14.25;;;26.30;99.90;;;;;;4983321;28;20612;-84
2021/08/13 10:17:12;;;;;;;18.27;12.68;;;26.30;99.90;;;;;;4984409;28;20644;-84
2021/08/13 10:19:39;;;;;;;18.25;13.35;;;26.40;99.90;;;;;;5000958;28;20169;-84
2021/08/13 10:22:04;;;;;;;19.80;13.77;;;26.50;99.90;;;;;;4986604;28;20180;-84
2021/08/13 10:24:30;;;;;;;14.95;11.82;;;26.60;99.90;;;;;;4987188;28;20187;-84
2021/08/13 10:26:55;;;;;;;16.60;14.07;;;26.60;99.90;;;;;;5002599;28;20188;-84
2021/08/13 10:29:21;;;;;;;16.15;13.20;;;26.40;99.90;;;;;;4984979;28;20672;-85
2021/08/13 10:31:47;;;;;;;19.23;13.30;;;26.40;99.90;;;;;;4986518;28;20191;-83
2021/08/13 10:34:12;;;;;;;15.52;13.25;;;26.50;99.90;;;;;;4987836;28;20197;-84
2021/08/13 10:36:38;;;;;;;18.40;12.30;;;26.50;99.90;;;;;;4985905;28;20263;-84
2021/08/13 10:39:04;;;;;;;16.08;12.60;;;26.60;99.90;;;;;;5002634;28;20176;-85
2021/08/13 10:41:29;;;;;;;16.48;11.98;;;26.70;99.90;;;;;;4986887;28;20596;-83
2021/08/13 10:43:55;;;;;;;15.95;12.52;;;26.70;99.90;;;;;;4985050;28;20208;-82
2021/08/13 10:46:20;;;;;;;14.77;11.65;;;26.70;99.90;;;;;;4984040;28;20195;-84
2021/08/13 10:48:47;;;;;;;15.35;13.23;;;26.80;99.90;;;;;;4984888;28;20695;-84
2021/08/13 10:51:12;;;;;;;14.77;11.60;;;26.90;99.90;;;;;;4985047;28;20188;-82
2021/08/13 10:53:39;;;;;;;13.02;10.10;;;26.80;99.90;;;;;;4984849;28;20207;-82
2021/08/13 10:56:05;;;;;;;12.52;9.82;;;26.80;99.90;;;;;;4985073;28;20239;-84
2021/08/13 10:58:36;;;;;;;11.15;9.40;;;26.90;99.90;;;;;;4984877;28;20215;-84
2021/08/13 11:01:11;;;;;;;11.68;9.43;;;27.10;99.90;;;;;;5000482;28;20251;-82
2021/08/13 11:03:40;;;;;;;13.98;11.02;;;27.10;99.90;;;;;;4999444;28;20259;-84
2021/08/13 11:06:06;;;;;;;13.77;9.80;;;27.00;99.90;;;;;;4983651;28;20188;-82
2021/08/13 11:08:41;;;;;;;12.77;9.43;;;26.90;99.90;;;;;;4992045;28;20192;-81
2021/08/13 11:11:10;;;;;;;13.07;9.25;;;26.90;99.90;;;;;;5012390;28;20191;-83
2021/08/13 11:13:40;;;;;;;15.10;11.50;;;26.90;99.90;;;;;;4990388;28;20228;-83
2021/08/13 11:16:24;;;;;;;11.15;9.93;;;26.90;99.90;;;;;;4974757;28;20185;-84
2021/08/13 11:19:00;;;;;;;11.45;9.20;;;26.90;99.90;;;;;;5021206;28;20270;-85
2021/08/13 11:21:34;;;;;;;12.18;8.77;;;26.90;99.90;;;;;;5010296;28;20195;-86
2021/08/13 11:24:01;;;;;;;11.55;9.48;;;26.80;99.90;;;;;;5004196;28;20204;-82
2021/08/13 11:26:52;;;;;;;9.43;8.35;;;26.70;99.90;;;;;;4982882;28;20211;-83
2021/08/13 11:29:31;;;;;;;10.57;8.63;;;26.70;99.90;;;;;;4996445;28;20208;-81
2021/08/13 11:31:58;;;;;;;12.05;8.35;;;26.60;99.90;;;;;;4999820;28;20190;-83
2021/08/13 11:34:45;;;;;;;8.52;7.03;;;26.60;99.90;;;;;;4983370;28;20204;-82
2021/08/13 11:37:43;;;;;;;7.90;6.28;;;26.60;99.90;;;;;;4999633;28;20183;-83
2021/08/13 11:40:12;;;;;;;7.63;5.80;;;26.80;99.90;;;;;;5001651;28;20156;-83
2021/08/13 11:42:38;;;;;;;6.03;4.80;;;26.90;99.90;;;;;;4998864;28;20196;-82
2021/08/13 11:45:08;;;;;;;6.75;4.25;;;26.80;99.90;;;;;;4983310;28;20184;-83
2021/08/13 11:47:34;;;;;;;4.82;4.00;;;26.70;99.90;;;;;;4997417;28;20188;-83
2021/08/13 11:50:06;;;;;;;5.07;4.35;;;26.50;99.90;;;;;;4963729;28;20180;-84
2021/08/13 11:52:33;;;;;;;4.32;3.90;;;26.20;99.90;;;;;;4967487;28;20216;-85
2021/08/13 11:55:21;;;;;;;5.50;4.25;;;26.10;99.90;;;;;;4973076;28;20196;-85
2021/08/13 11:57:57;;;;;;;6.35;4.47;;;26.20;99.90;;;;;;5000420;28;20546;-81
2021/08/13 12:00:23;;;;;;;6.35;3.95;;;26.30;99.90;;;;;;4987185;28;20168;-81
2021/08/13 12:02:56;;;;;;;5.45;4.00;;;26.20;99.90;;;;;;4985608;28;20207;-81
2021/08/13 12:05:22;;;;;;;6.45;4.18;;;26.10;99.90;;;;;;4997103;28;20179;-85
2021/08/13 12:07:55;;;;;;;5.32;4.07;;;26.20;99.90;;;;;;4998124;28;20176;-85
2021/08/13 12:10:21;;;;;;;5.95;3.92;;;26.20;99.90;;;;;;5001760;28;20165;-84
2021/08/13 12:12:47;;;;;;;4.95;3.40;;;26.20;99.90;;;;;;4999674;28;20891;-80
2021/08/13 12:15:13;;;;;;;3.92;3.28;;;26.30;99.90;;;;;;5005582;28;20177;-82
2021/08/13 12:17:38;;;;;;;3.85;3.13;;;26.40;99.90;;;;;;5000284;28;20173;-84
2021/08/13 12:20:06;;;;;;;4.63;3.08;;;26.50;99.90;;;;;;4983840;28;20176;-84
2021/08/13 12:22:32;;;;;;;4.55;3.42;;;26.50;99.90;;;;;;4982671;28;20199;-85
2021/08/13 12:24:58;;;;;;;4.05;3.33;;;26.50;99.90;;;;;;4983062;28;20184;-82
2021/08/13 12:27:27;;;;;;;5.00;2.58;;;26.50;99.90;;;;;;4980825;28;20183;-77
2021/08/13 12:29:53;;;;;;;3.42;2.75;;;26.60;99.90;;;;;;4976425;28;20211;-77